KDNN/DNN METAR and TAF weather

Enter ICAO airport designator
Station Type Date Time Source
KDNN METAR 2018/04/21 11:35 UTC NOAA

KDNN 211135Z AUTO 00000KT 7SM CLR 02/02 A3035 RMK AO2


Station Type Date Time Source
KDNN Decoded METAR 2018/04/21 11:35 UTC NOAA

Dalton, Dalton Municipal Airport, GA, United States (KDNN) 34-43-18N 084-52-09W
Apr 21, 2018 - 07:35 AM EDT / 2018.04.21 1135 UTC
Wind: Calm:0
Visibility: 7 mile(s):0
Sky conditions: clear
Temperature: 35 F (2 C)
Dew Point: 35 F (2 C)
Relative Humidity: 100%
Pressure (altimeter): 30.35 in. Hg (1027 hPa)
ob: KDNN 211135Z AUTO 00000KT 7SM CLR 02/02 A3035 RMK AO2
cycle: 11

Station Type Date Time Source
KDNN TAF UTC NOAA

Error!


Example: see airport list